CheckWX is a tool to help pilots better visualize weather data.  It is not intended as a substitute for an official pre-flight weather briefing.

08:43:57 UTC

KIAH TAF
George Bush Intercontinental / Houston Airport
Houston, Texas, USA
KIAH 180520Z 1806/1912 VRB04KT P6SM SCT250 FM190700 00000KT P6SM FEW020 FEW250

Oct-18@
06:00 UTC

Oct-18 @ 06:00 UTC

Oct-19@
07:00 UTC

Oct-19 @ 07:00 UTC

KIAH 180520Z 1806/1912 VRB04KT P6SM SCT250
Wind
  • Variable at 4 KTS
Cloud Levels
  • Scattered at 25,000' AGL

Oct-19@
07:00 UTC

Oct-19 @ 07:00 UTC

Oct-19@
12:00 UTC

Oct-19 @ 12:00 UTC

FM190700 00000KT P6SM FEW020 FEW250

From

From Standard forecast or significant change

Cloud Levels
  • Few at 2,000' AGL
  • Few at 25,000' AGL